createdAt,value
2019-04-06T00:00:36.549Z,18.10
2019-04-06T00:03:06.764Z,21.53
2019-04-06T00:05:55.877Z,19.87
2019-04-06T00:08:15.873Z,22.73
2019-04-06T00:10:59.537Z,18.20
2019-04-06T00:13:30.582Z,20.93
2019-04-06T00:15:59.195Z,20.80
2019-04-06T00:18:27.747Z,21.37
2019-04-06T00:20:56.404Z,23.23
2019-04-06T00:23:26.643Z,23.60
2019-04-06T00:25:55.239Z,22.83
2019-04-06T00:28:23.856Z,19.90
2019-04-06T00:30:54.076Z,22.20
2019-04-06T00:33:24.275Z,23.40
2019-04-06T00:35:54.529Z,21.73
2019-04-06T00:38:23.107Z,20.20
2019-04-06T00:40:51.759Z,19.73
2019-04-06T00:43:20.346Z,20.33
2019-04-06T00:45:48.948Z,19.47
2019-04-06T00:48:20.479Z,20.73
2019-04-06T00:50:51.860Z,21.87
2019-04-06T00:53:20.414Z,20.50
2019-04-06T00:55:55.666Z,19.70
2019-04-06T00:58:19.247Z,21.10
2019-04-06T01:00:47.798Z,18.17
2019-04-06T01:03:16.479Z,22.50
2019-04-06T01:05:45.158Z,21.07
2019-04-06T01:08:13.868Z,18.20
2019-04-06T01:10:42.469Z,20.17
2019-04-06T01:13:11.071Z,20.83
2019-04-06T01:15:39.686Z,20.53
2019-04-06T01:18:08.282Z,18.37
2019-04-06T01:20:36.846Z,23.70
2019-04-06T01:23:07.210Z,20.50
2019-04-06T01:25:35.938Z,20.47
2019-04-06T01:28:04.576Z,20.63
2019-04-06T01:30:33.244Z,21.43
2019-04-06T01:33:03.341Z,20.93
2019-04-06T01:35:31.945Z,19.80
2019-04-06T01:38:00.523Z,20.60
2019-04-06T01:40:29.319Z,24.00
2019-04-06T01:42:57.923Z,20.13
2019-04-06T01:45:26.495Z,20.60
2019-04-06T01:47:55.224Z,20.40
2019-04-06T01:50:23.763Z,21.17
2019-04-06T01:52:52.451Z,19.57
2019-04-06T01:55:24.034Z,20.70
2019-04-06T01:57:52.595Z,22.07
2019-04-06T02:00:24.068Z,23.83
2019-04-06T02:02:56.937Z,22.10
2019-04-06T02:05:25.977Z,17.83
2019-04-06T02:07:54.766Z,20.23
2019-04-06T02:10:23.467Z,20.07
2019-04-06T02:12:52.172Z,19.07
2019-04-06T02:15:20.751Z,19.03
2019-04-06T02:17:49.329Z,20.33
2019-04-06T02:20:17.923Z,17.43
2019-04-06T02:22:46.495Z,18.70
2019-04-06T02:25:15.113Z,18.90
2019-04-06T02:27:43.713Z,24.37
2019-04-06T02:30:14.532Z,19.87
2019-04-06T02:32:50.542Z,19.87
2019-04-06T02:35:36.504Z,21.73
2019-04-06T02:38:23.281Z,19.97
2019-04-06T02:41:02.336Z,21.23
2019-04-06T02:43:32.597Z,22.27
2019-04-06T02:46:01.151Z,21.20
2019-04-06T02:48:29.720Z,19.63
2019-04-06T02:50:58.426Z,19.83
2019-04-06T02:53:27.045Z,21.87
2019-04-06T02:55:56.231Z,21.17
2019-04-06T02:58:25.079Z,22.70
2019-04-06T03:00:53.627Z,22.67
2019-04-06T03:03:23.918Z,21.07
2019-04-06T03:05:52.764Z,20.77
2019-04-06T03:08:21.472Z,21.67
2019-04-06T03:10:50.200Z,25.07
2019-04-06T03:13:18.826Z,20.27
2019-04-06T03:15:47.388Z,19.87
2019-04-06T03:18:15.952Z,18.47
2019-04-06T03:20:44.517Z,17.97
2019-04-06T03:23:13.100Z,19.03
2019-04-06T03:25:41.675Z,19.70
2019-04-06T03:28:10.571Z,19.30
2019-04-06T03:30:39.201Z,17.20
2019-04-06T03:33:07.768Z,16.83
2019-04-06T03:35:36.396Z,15.60
2019-04-06T03:38:07.745Z,18.10
2019-04-06T03:40:36.466Z,18.50
2019-04-06T03:43:05.107Z,16.17
2019-04-06T03:45:33.975Z,16.03
2019-04-06T03:48:02.675Z,16.73
2019-04-06T03:50:31.319Z,16.70
2019-04-06T03:52:59.927Z,18.17
2019-04-06T03:55:28.504Z,17.63
2019-04-06T03:57:57.179Z,19.37
2019-04-06T04:00:25.893Z,18.23
2019-04-06T04:02:54.899Z,20.57
2019-04-06T04:05:23.440Z,16.13
2019-04-06T04:07:52.008Z,18.77
2019-04-06T04:10:35.575Z,18.00
2019-04-06T04:13:04.634Z,18.90
2019-04-06T04:15:33.314Z,17.83
2019-04-06T04:18:02.638Z,20.20
2019-04-06T04:20:31.245Z,18.00
2019-04-06T04:22:59.824Z,16.90
2019-04-06T04:25:28.410Z,20.43
2019-04-06T04:27:57.273Z,18.67
2019-04-06T04:30:33.421Z,18.13
2019-04-06T04:32:59.129Z,17.23
2019-04-06T04:35:27.701Z,16.07
2019-04-06T04:37:58.862Z,19.57
2019-04-06T04:40:27.617Z,18.47
2019-04-06T04:42:58.575Z,17.13
2019-04-06T04:45:27.140Z,21.43
2019-04-06T04:47:55.813Z,18.23
2019-04-06T04:50:24.321Z,18.70
2019-04-06T04:52:53.859Z,19.77
2019-04-06T04:55:22.464Z,18.33
2019-04-06T04:57:51.034Z,16.50
2019-04-06T05:00:19.985Z,18.20
2019-04-06T05:02:50.291Z,16.73
2019-04-06T05:05:21.599Z,18.27
2019-04-06T05:07:53.220Z,20.43
2019-04-06T05:10:21.844Z,18.23
2019-04-06T05:12:50.425Z,16.20
2019-04-06T05:15:22.060Z,17.47
2019-04-06T05:17:50.614Z,21.20
2019-04-06T05:20:19.216Z,18.03
2019-04-06T05:22:53.593Z,20.00
2019-04-06T05:25:22.120Z,18.70
2019-04-06T05:27:52.372Z,21.23
2019-04-06T05:30:23.922Z,18.43
2019-04-06T05:32:52.605Z,20.23
2019-04-06T05:35:21.128Z,20.77
2019-04-06T05:37:49.706Z,19.30
2019-04-06T05:40:18.252Z,18.37
2019-04-06T05:42:48.356Z,19.43
2019-04-06T05:45:21.582Z,20.40
2019-04-06T05:47:53.174Z,19.33
2019-04-06T05:50:21.836Z,19.03
2019-04-06T05:52:50.437Z,19.40
2019-04-06T05:55:19.045Z,19.40
2019-04-06T05:57:47.628Z,20.33
2019-04-06T06:00:16.499Z,21.63
2019-04-06T06:02:46.623Z,19.63
2019-04-06T06:05:15.492Z,20.87
2019-04-06T06:07:45.711Z,19.63
2019-04-06T06:10:14.346Z,16.57
2019-04-06T06:12:42.909Z,16.93
2019-04-06T06:15:11.619Z,21.27
2019-04-06T06:17:42.251Z,21.33
2019-04-06T06:20:13.337Z,18.43
2019-04-06T06:22:41.926Z,20.90
2019-04-06T06:25:10.929Z,21.17
2019-04-06T06:27:39.521Z,17.07
2019-04-06T06:30:10.039Z,19.93
2019-04-06T06:32:38.659Z,19.63
2019-04-06T06:35:07.586Z,21.97
2019-04-06T06:37:36.199Z,23.00
2019-04-06T06:40:08.121Z,19.07
2019-04-06T06:42:36.687Z,21.53
2019-04-06T06:45:06.533Z,22.47
2019-04-06T06:47:35.357Z,24.97
2019-04-06T06:50:06.537Z,27.13
2019-04-06T06:52:35.116Z,19.90
2019-04-06T06:55:03.846Z,21.27
2019-04-06T06:57:32.403Z,24.13
2019-04-06T07:00:02.771Z,26.07
2019-04-06T07:02:35.695Z,23.90
2019-04-06T07:05:05.907Z,23.80
2019-04-06T07:07:34.510Z,23.57
2019-04-06T07:10:05.956Z,26.33
2019-04-06T07:12:33.612Z,23.87
2019-04-06T07:15:04.749Z,23.77
2019-04-06T07:17:33.325Z,23.57
2019-04-06T07:20:01.884Z,24.03
2019-04-06T07:22:30.483Z,22.03
2019-04-06T07:24:59.257Z,22.57
2019-04-06T07:27:27.891Z,22.40
2019-04-06T07:30:03.917Z,24.27
2019-04-06T07:32:32.483Z,24.67
2019-04-06T07:35:01.338Z,22.17
2019-04-06T07:37:29.960Z,24.63
2019-04-06T07:39:58.548Z,24.17
2019-04-06T07:42:27.162Z,24.13
2019-04-06T07:54:44.286Z,24.93
2019-04-06T07:57:13.072Z,21.00
2019-04-06T07:59:41.690Z,24.37
2019-04-06T08:02:10.339Z,22.80
2019-04-06T08:04:39.139Z,24.30
2019-04-06T08:07:07.762Z,24.27
2019-04-06T08:09:36.359Z,24.07
2019-04-06T08:12:05.409Z,21.90
2019-04-06T08:14:34.035Z,20.90
2019-04-06T08:17:02.626Z,24.50
2019-04-06T08:19:34.127Z,22.43
2019-04-06T08:22:02.798Z,20.93
2019-04-06T08:24:34.329Z,23.50
2019-04-06T08:27:16.216Z,24.17
2019-04-06T08:29:39.026Z,24.43
2019-04-06T08:32:08.500Z,25.33
2019-04-06T08:34:49.070Z,25.67
2019-04-06T08:37:20.571Z,25.30
2019-04-06T08:39:49.245Z,24.43
2019-04-06T08:42:17.839Z,24.13
2019-04-06T08:44:46.402Z,21.70
2019-04-06T08:47:15.114Z,21.43
2019-04-06T08:49:43.719Z,23.63
2019-04-06T08:52:12.379Z,25.33
2019-04-06T08:54:43.836Z,32.00
2019-04-06T08:57:12.621Z,25.47
2019-04-06T08:59:51.925Z,26.50
2019-04-06T09:02:20.797Z,23.17
2019-04-06T09:04:52.308Z,20.23
2019-04-06T09:07:20.924Z,19.63
2019-04-06T09:09:49.570Z,24.70
2019-04-06T09:12:18.140Z,22.30
2019-04-06T09:14:46.739Z,23.07
2019-04-06T09:17:15.467Z,19.07
2019-04-06T09:19:44.577Z,20.63
2019-04-06T09:22:13.137Z,20.53
2019-04-06T09:24:44.412Z,21.70
2019-04-06T09:27:13.019Z,18.07
2019-04-06T09:29:41.650Z,17.23
2019-04-06T09:32:10.334Z,19.80
2019-04-06T09:34:38.891Z,20.47
2019-04-06T09:37:07.452Z,16.50
2019-04-06T09:39:36.252Z,15.27
2019-04-06T09:42:05.052Z,17.00
2019-04-06T09:44:47.116Z,17.40
2019-04-06T09:47:43.879Z,18.77
2019-04-06T09:50:39.440Z,15.07
2019-04-06T09:53:09.980Z,18.23
2019-04-06T09:56:01.695Z,15.90
2019-04-06T09:58:47.917Z,14.90
2019-04-06T10:01:32.467Z,24.37
2019-04-06T10:04:00.474Z,21.87
2019-04-06T10:06:32.706Z,19.83
2019-04-06T10:09:05.506Z,18.90
2019-04-06T10:11:47.492Z,14.17
2019-04-06T10:14:26.313Z,19.13
2019-04-06T10:17:02.592Z,16.17
2019-04-06T10:19:57.777Z,17.43
2019-04-06T10:22:30.847Z,16.80
2019-04-06T10:25:11.390Z,21.03
2019-04-06T10:27:57.914Z,19.67
2019-04-06T10:30:43.051Z,15.63
2019-04-06T10:33:17.952Z,19.83
2019-04-06T10:35:45.525Z,15.37
2019-04-06T10:38:21.773Z,14.80
2019-04-06T10:41:01.246Z,17.87
2019-04-06T10:43:46.331Z,12.47
2019-04-06T10:46:17.449Z,13.20
2019-04-06T10:48:56.717Z,12.00
2019-04-06T10:51:50.556Z,11.40
2019-04-06T10:54:20.853Z,11.00
2019-04-06T10:56:54.380Z,10.50
2019-04-06T10:59:33.509Z,11.13
2019-04-06T11:02:06.259Z,12.03
2019-04-06T11:04:42.223Z,10.97
2019-04-06T11:07:28.543Z,10.37
2019-04-06T11:10:19.482Z,11.87
2019-04-06T11:13:05.928Z,13.37
2019-04-06T11:15:51.146Z,12.77
2019-04-06T11:18:37.529Z,13.90
2019-04-06T11:21:16.858Z,11.43
2019-04-06T11:24:02.000Z,12.63
2019-04-06T11:26:32.367Z,11.90
2019-04-06T11:29:20.896Z,12.23
2019-04-06T11:32:13.347Z,12.50
2019-04-06T11:34:42.357Z,14.60
2019-04-06T11:37:18.978Z,13.07
2019-04-06T11:39:55.951Z,11.53
2019-04-06T11:42:43.769Z,13.60
2019-04-06T11:45:18.570Z,11.17
2019-04-06T11:47:48.805Z,13.23
2019-04-06T11:50:32.502Z,13.27
2019-04-06T11:53:08.689Z,12.10
2019-04-06T11:55:53.966Z,11.57
2019-04-06T11:58:45.795Z,13.47
2019-04-06T12:01:25.212Z,11.20
2019-04-06T12:04:16.284Z,14.20
2019-04-06T12:06:49.403Z,12.37
2019-04-06T12:09:31.513Z,14.67
2019-04-06T12:12:13.918Z,14.17
2019-04-06T12:14:44.407Z,12.37
2019-04-06T12:17:14.701Z,12.83
2019-04-06T12:20:04.563Z,11.40
2019-04-06T12:22:51.090Z,11.23
2019-04-06T12:25:33.628Z,13.53
2019-04-06T12:28:12.386Z,14.10
2019-04-06T12:30:46.022Z,10.47
2019-04-06T12:33:33.241Z,11.90
2019-04-06T12:36:22.540Z,10.93
2019-04-06T12:39:08.744Z,11.40
2019-04-06T12:41:55.233Z,11.73
2019-04-06T12:44:25.408Z,11.20
2019-04-06T12:47:08.462Z,12.00
2019-04-06T12:49:40.560Z,12.10
2019-04-06T12:52:12.651Z,10.70
2019-04-06T12:54:50.204Z,13.47
2019-04-06T12:57:28.640Z,13.90
2019-04-06T13:00:01.531Z,14.07
2019-04-06T13:02:46.591Z,10.73
2019-04-06T13:05:35.963Z,12.13
2019-04-06T13:08:22.583Z,11.73
2019-04-06T13:11:04.429Z,10.20
2019-04-06T13:13:49.552Z,11.17
2019-04-06T13:16:22.785Z,12.03
2019-04-06T13:18:59.159Z,11.37
2019-04-06T13:21:32.094Z,12.57
2019-04-06T13:24:07.680Z,10.23
2019-04-06T13:26:49.717Z,12.03
2019-04-06T13:29:20.208Z,11.67
2019-04-06T13:32:08.517Z,11.23
2019-04-06T13:34:38.725Z,9.63
2019-04-06T13:37:08.927Z,10.57
2019-04-06T13:39:47.919Z,9.50
2019-04-06T13:42:34.686Z,12.13
2019-04-06T13:45:11.739Z,11.03
2019-04-06T13:47:58.158Z,13.67
2019-04-06T13:50:34.060Z,9.80
2019-04-06T13:53:04.373Z,8.97
2019-04-06T13:55:43.356Z,8.40
2019-04-06T13:58:13.584Z,10.93
2019-04-06T14:00:46.632Z,9.37
2019-04-06T14:03:19.824Z,9.83
2019-04-06T14:05:50.041Z,8.80
2019-04-06T14:08:28.936Z,12.13
2019-04-06T14:11:18.079Z,9.63
2019-04-06T14:13:48.308Z,9.53
2019-04-06T14:16:24.513Z,10.47
2019-04-06T14:19:06.481Z,9.60
2019-04-06T14:21:55.952Z,11.97
2019-04-06T14:24:26.359Z,8.60
2019-04-06T14:27:11.600Z,9.30
2019-04-06T14:29:56.248Z,9.07
2019-04-06T14:32:43.249Z,11.47
2019-04-06T14:35:13.577Z,9.73
2019-04-06T14:38:00.576Z,13.40
2019-04-06T14:40:46.810Z,11.10
2019-04-06T14:43:20.259Z,14.17
2019-04-06T14:46:00.287Z,9.73
2019-04-06T14:48:37.315Z,9.37
2019-04-06T14:51:13.347Z,11.90
2019-04-06T14:53:59.859Z,9.00
2019-04-06T14:56:30.449Z,9.93
2019-04-06T14:59:00.690Z,8.57
2019-04-06T15:01:41.203Z,14.00
2019-04-06T15:04:17.241Z,9.47
2019-04-06T15:07:11.137Z,7.80
2019-04-06T15:09:39.885Z,10.70
2019-04-06T15:12:29.210Z,9.23
2019-04-06T15:15:02.077Z,14.80
2019-04-06T15:17:39.542Z,9.00
2019-04-06T15:20:19.315Z,9.37
2019-04-06T15:22:52.442Z,7.73
2019-04-06T15:25:37.453Z,8.30
2019-04-06T15:28:08.201Z,11.67
2019-04-06T15:30:47.426Z,13.47
2019-04-06T15:33:29.853Z,9.73
2019-04-06T15:36:00.085Z,9.50
2019-04-06T15:38:34.873Z,9.20
2019-04-06T15:41:12.055Z,9.63
2019-04-06T15:43:57.696Z,11.27
2019-04-06T15:46:42.559Z,11.30
2019-04-06T15:49:17.467Z,11.47
2019-04-06T15:52:09.663Z,9.73
2019-04-06T15:54:39.421Z,9.77
2019-04-06T15:57:30.607Z,11.33
2019-04-06T16:00:05.563Z,10.03
2019-04-06T16:02:52.155Z,13.43
2019-04-06T16:05:31.236Z,11.77
2019-04-06T16:08:13.151Z,11.53
2019-04-06T16:10:44.099Z,11.23
2019-04-06T16:13:16.901Z,13.27
2019-04-06T16:15:52.345Z,13.50
2019-04-06T16:18:35.188Z,10.90
2019-04-06T16:21:21.960Z,12.53
2019-04-06T16:24:03.492Z,9.63
2019-04-06T16:26:42.112Z,11.60
2019-04-06T16:29:21.904Z,10.80
2019-04-06T16:31:53.360Z,11.80
2019-04-06T16:34:29.338Z,10.07
2019-04-06T16:36:59.897Z,11.57
2019-04-06T16:39:50.903Z,9.90
2019-04-06T16:42:23.879Z,10.67
2019-04-06T16:44:54.108Z,9.47
2019-04-06T16:47:26.751Z,9.83
2019-04-06T16:50:05.506Z,8.80
2019-04-06T16:52:38.811Z,13.27
2019-04-06T16:55:09.153Z,11.20
2019-04-06T16:57:40.030Z,9.50
2019-04-06T17:00:22.693Z,9.23
2019-04-06T17:02:53.132Z,10.03
2019-04-06T17:05:35.183Z,9.73
2019-04-06T17:08:17.464Z,9.30
2019-04-06T17:11:03.649Z,11.63
2019-04-06T17:13:49.134Z,10.53
2019-04-06T17:16:19.324Z,9.10
2019-04-06T17:18:55.618Z,10.83
2019-04-06T17:21:31.572Z,9.47
2019-04-06T17:24:10.525Z,9.93
2019-04-06T17:26:49.254Z,9.50
2019-04-06T17:29:35.718Z,12.83
2019-04-06T17:32:06.481Z,10.03
2019-04-06T17:34:39.694Z,8.90
2019-04-06T17:37:10.023Z,11.07
2019-04-06T17:39:43.565Z,11.23
2019-04-06T17:42:32.765Z,11.40
2019-04-06T17:45:15.230Z,8.90
2019-04-06T17:47:57.884Z,8.53
2019-04-06T17:50:40.024Z,8.60
2019-04-06T17:53:17.070Z,9.07
2019-04-06T17:56:03.465Z,8.87
2019-04-06T17:58:49.951Z,10.00
2019-04-06T18:01:38.322Z,8.53
2019-04-06T18:04:08.542Z,8.70
2019-04-06T18:06:38.762Z,9.00
2019-04-06T18:09:26.633Z,9.03
2019-04-06T18:12:17.465Z,10.67
2019-04-06T18:14:48.881Z,9.07
2019-04-06T18:17:17.672Z,8.77
2019-04-06T18:19:46.500Z,9.10
2019-04-06T18:22:15.792Z,13.27
2019-04-06T18:24:45.247Z,8.30
2019-04-06T18:27:16.203Z,8.00
2019-04-06T18:29:44.327Z,8.20
2019-04-06T18:32:14.892Z,13.60
2019-04-06T18:34:43.434Z,8.40
2019-04-06T18:37:19.136Z,10.17
2019-04-06T18:39:48.097Z,10.03
2019-04-06T18:42:20.916Z,8.40
2019-04-06T18:44:49.855Z,8.53
2019-04-06T18:47:18.504Z,11.30
2019-04-06T18:49:47.066Z,10.47
2019-04-06T18:52:15.653Z,8.83
2019-04-06T18:54:44.303Z,8.43
2019-04-06T18:57:12.895Z,10.80
2019-04-06T18:59:41.480Z,10.37
2019-04-06T19:02:10.053Z,10.63
2019-04-06T19:04:38.644Z,9.53
2019-04-06T19:07:07.588Z,10.43
2019-04-06T19:09:38.303Z,12.50
2019-04-06T19:12:08.995Z,10.47
2019-04-06T19:14:37.533Z,11.67
2019-04-06T19:17:06.261Z,12.50
2019-04-06T19:19:35.196Z,10.27
2019-04-06T19:22:04.666Z,11.20
2019-04-06T19:24:33.906Z,10.60
2019-04-06T19:27:02.406Z,11.47
2019-04-06T19:29:31.101Z,10.70
2019-04-06T19:32:00.213Z,10.13
2019-04-06T19:34:29.780Z,8.97
2019-04-06T19:36:58.377Z,10.77
2019-04-06T19:39:27.344Z,11.17
2019-04-06T19:41:56.130Z,10.73
2019-04-06T19:44:24.921Z,9.97
2019-04-06T19:46:53.576Z,8.60
2019-04-06T19:49:22.136Z,10.70
2019-04-06T19:51:50.759Z,8.53
2019-04-06T19:54:22.115Z,8.77
2019-04-06T19:56:52.193Z,8.17
2019-04-06T19:59:22.322Z,8.37
2019-04-06T20:01:52.425Z,7.93
2019-04-06T20:04:21.739Z,7.43
2019-04-06T20:06:52.131Z,7.40
2019-04-06T20:09:23.600Z,7.13
2019-04-06T20:12:03.566Z,7.27
2019-04-06T20:14:22.425Z,7.07
2019-04-06T20:16:51.316Z,6.93
2019-04-06T20:19:21.923Z,7.07
2019-04-06T20:21:50.378Z,6.37
2019-04-06T20:24:19.494Z,6.60
2019-04-06T20:26:48.086Z,7.30
2019-04-06T20:29:17.154Z,6.80
2019-04-06T20:31:46.223Z,6.73
2019-04-06T20:34:15.219Z,7.50
2019-04-06T20:36:43.810Z,6.63
2019-04-06T20:39:12.650Z,6.90
2019-04-06T20:41:41.800Z,6.83
2019-04-06T20:44:10.831Z,6.27
2019-04-06T20:46:39.819Z,5.90
2019-04-06T20:49:09.204Z,6.70
2019-04-06T20:51:37.970Z,6.73
2019-04-06T20:54:06.545Z,6.83
2019-04-06T20:56:35.179Z,6.40
2019-04-06T20:59:03.955Z,6.37
2019-04-06T21:01:32.511Z,6.43
2019-04-06T21:04:03.073Z,6.43
2019-04-06T21:06:31.471Z,6.80
2019-04-06T21:09:00.063Z,5.97
2019-04-06T21:11:28.960Z,5.83
2019-04-06T21:14:00.325Z,6.20
2019-04-06T21:16:28.927Z,6.93
2019-04-06T21:18:57.490Z,6.27
2019-04-06T21:21:26.109Z,5.23
2019-04-06T21:23:58.015Z,5.30
2019-04-06T21:26:26.905Z,5.87
2019-04-06T21:28:55.485Z,6.37
2019-04-06T21:31:24.287Z,5.50
2019-04-06T21:33:55.228Z,5.40
2019-04-06T21:36:26.682Z,5.77
2019-04-06T21:38:57.123Z,5.87
2019-04-06T21:41:27.762Z,5.67
2019-04-06T21:43:56.835Z,4.53
2019-04-06T21:46:28.062Z,5.00
2019-04-06T21:48:56.922Z,5.23
2019-04-06T21:51:28.676Z,4.77
2019-04-06T21:53:57.581Z,4.57
2019-04-06T21:56:28.599Z,4.93
2019-04-06T21:58:57.316Z,5.50
2019-04-06T22:01:26.438Z,4.33
2019-04-06T22:03:55.116Z,4.20
2019-04-06T22:06:25.462Z,4.60
2019-04-06T22:08:55.033Z,4.73
2019-04-06T22:11:23.610Z,6.07
2019-04-06T22:13:52.377Z,4.33
2019-04-06T22:16:21.015Z,4.30
2019-04-06T22:18:49.829Z,6.43
2019-04-06T22:21:19.271Z,4.00
2019-04-06T22:23:47.831Z,4.47
2019-04-06T22:26:17.068Z,4.13
2019-04-06T22:28:45.851Z,4.17
2019-04-06T22:31:14.835Z,4.23
2019-04-06T22:33:43.587Z,4.03
2019-04-06T22:36:12.423Z,4.53
2019-04-06T22:38:41.612Z,4.07
2019-04-06T22:41:10.213Z,5.00
2019-04-06T22:43:39.971Z,5.40
2019-04-06T22:46:12.488Z,4.47
2019-04-06T22:48:41.346Z,4.40
2019-04-06T22:51:10.159Z,4.93
2019-04-06T22:53:40.885Z,4.60
2019-04-06T22:56:09.961Z,4.23
2019-04-06T22:58:41.272Z,6.00
2019-04-06T23:01:11.671Z,4.67
2019-04-06T23:03:45.039Z,5.90
2019-04-06T23:06:24.437Z,4.50
2019-04-06T23:08:53.083Z,4.83
2019-04-06T23:11:22.255Z,5.20
2019-04-06T23:13:54.100Z,4.50
2019-04-06T23:16:23.023Z,4.77
2019-04-06T23:18:51.591Z,4.03
2019-04-06T23:21:20.337Z,4.23
2019-04-06T23:23:48.848Z,11.67
2019-04-06T23:26:17.921Z,4.40
2019-04-06T23:28:47.337Z,4.90
2019-04-06T23:31:18.834Z,5.23
2019-04-06T23:33:47.418Z,5.03
2019-04-06T23:36:16.047Z,5.37
2019-04-06T23:38:44.613Z,5.53
2019-04-06T23:41:13.300Z,5.27
2019-04-06T23:43:41.862Z,4.70
2019-04-06T23:46:11.992Z,4.90
2019-04-06T23:48:40.549Z,5.60
2019-04-06T23:51:11.585Z,5.20
2019-04-06T23:53:40.172Z,6.90
2019-04-06T23:56:09.102Z,5.47
2019-04-06T23:58:37.781Z,5.80
